Time;durP1;ratioP1;P1;durP2;ratioP2;P2;SDS_P1;SDS_P2;PMS_P1;PMS_P2;Temp;Humidity;BMP_temperature;BMP_pressure;BME280_temperature;BME280_humidity;BME280_pressure;Samples;Min_cycle;Max_cycle;Signal;HPM_P1;HPM_P2
2021/09/15 00:02:05;;;;;;;16.00;13.10;;;;;;;;;;5026994;28;20186;-74
2021/09/15 00:04:30;;;;;;;15.63;13.23;;;;;;;;;;5018842;28;20190;-74
2021/09/15 00:06:55;;;;;;;16.20;13.38;;;;;;;;;;5030523;28;20188;-73
2021/09/15 00:09:21;;;;;;;14.40;12.75;;;;;;;;;;5020444;28;20170;-74
2021/09/15 00:11:46;;;;;;;16.65;13.05;;;;;;;;;;5029868;28;20179;-74
2021/09/15 00:14:11;;;;;;;18.30;13.68;;;;;;;;;;5022142;28;20209;-74
2021/09/15 00:16:37;;;;;;;14.82;13.13;;;;;;;;;;5031758;28;20257;-75
2021/09/15 00:19:02;;;;;;;16.45;13.48;;;;;;;;;;5029216;28;20297;-75
2021/09/15 00:21:29;;;;;;;15.80;13.52;;;;;;;;;;5024482;28;20201;-75
2021/09/15 00:23:54;;;;;;;14.73;12.82;;;;;;;;;;5026821;28;20189;-74
2021/09/15 00:26:20;;;;;;;16.42;13.30;;;;;;;;;;5023770;28;20256;-74
2021/09/15 00:28:45;;;;;;;14.45;11.68;;;;;;;;;;5028572;28;21955;-74
2021/09/15 00:31:10;;;;;;;14.20;12.05;;;;;;;;;;5022639;28;20186;-74
2021/09/15 00:33:36;;;;;;;15.40;12.02;;;;;;;;;;5028007;28;20185;-74
2021/09/15 00:36:01;;;;;;;15.00;11.70;;;;;;;;;;5021304;28;20640;-73
2021/09/15 00:38:26;;;;;;;17.58;12.00;;;;;;;;;;5023549;28;20706;-73
2021/09/15 00:40:52;;;;;;;16.70;12.52;;;;;;;;;;5022415;28;20644;-74
2021/09/15 00:43:17;;;;;;;12.68;11.40;;;;;;;;;;5028339;28;20197;-74
2021/09/15 00:45:42;;;;;;;14.50;11.93;;;;;;;;;;5022198;28;20174;-73
2021/09/15 00:48:08;;;;;;;13.48;11.68;;;;;;;;;;5028939;28;20183;-73
2021/09/15 00:50:33;;;;;;;15.77;12.52;;;;;;;;;;5031148;28;20268;-73
2021/09/15 00:53:01;;;;;;;13.25;11.75;;;;;;;;;;5021112;28;20210;-74
2021/09/15 00:55:26;;;;;;;15.75;11.32;;;;;;;;;;5030971;28;20178;-73
2021/09/15 00:57:51;;;;;;;16.17;12.32;;;;;;;;;;5018411;28;20221;-72
2021/09/15 01:00:17;;;;;;;14.02;11.43;;;;;;;;;;5027170;28;20258;-73
2021/09/15 01:02:42;;;;;;;14.15;10.85;;;;;;;;;;5020346;28;21130;-72
2021/09/15 01:05:08;;;;;;;13.35;10.02;;;;;;;;;;5031707;28;20284;-73
2021/09/15 01:07:35;;;;;;;13.98;11.80;;;;;;;;;;5020101;28;20193;-73
2021/09/15 01:10:01;;;;;;;13.85;12.27;;;;;;;;;;5029496;28;20658;-73
2021/09/15 01:12:27;;;;;;;16.70;11.55;;;;;;;;;;5018094;28;20193;-73
2021/09/15 01:14:52;;;;;;;15.13;11.95;;;;;;;;;;5026855;28;20244;-73
2021/09/15 01:17:17;;;;;;;15.10;12.27;;;;;;;;;;5020515;28;20488;-73
2021/09/15 01:19:43;;;;;;;15.50;11.50;;;;;;;;;;5030805;28;20189;-73
2021/09/15 01:22:09;;;;;;;16.17;12.15;;;;;;;;;;5033979;28;20196;-73
2021/09/15 01:24:34;;;;;;;16.80;12.60;;;;;;;;;;5025497;28;20609;-73
2021/09/15 01:27:00;;;;;;;16.98;12.77;;;;;;;;;;5033558;28;20204;-72
2021/09/15 01:29:28;;;;;;;16.60;12.55;;;;;;;;;;5024686;28;20201;-72
2021/09/15 01:31:59;;;;;;;17.63;12.38;;;;;;;;;;5034434;28;20680;-73
2021/09/15 01:34:24;;;;;;;15.98;12.38;;;;;;;;;;5027486;28;20875;-72
2021/09/15 01:36:50;;;;;;;16.67;12.50;;;;;;;;;;5030556;28;20213;-73
2021/09/15 01:39:15;;;;;;;14.15;12.32;;;;;;;;;;5024305;28;20228;-73
2021/09/15 01:41:41;;;;;;;18.02;12.00;;;;;;;;;;5031110;28;20201;-73
2021/09/15 01:44:06;;;;;;;16.15;12.50;;;;;;;;;;5025250;28;20186;-73
2021/09/15 01:46:31;;;;;;;18.08;13.50;;;;;;;;;;5031060;28;20186;-73
2021/09/15 01:48:57;;;;;;;17.25;13.40;;;;;;;;;;5023551;28;20189;-72
2021/09/15 01:51:22;;;;;;;15.63;12.07;;;;;;;;;;5032753;28;20186;-73
2021/09/15 01:53:47;;;;;;;14.05;12.55;;;;;;;;;;5033712;28;20189;-73
2021/09/15 01:56:13;;;;;;;16.13;13.25;;;;;;;;;;5024967;28;20206;-72
2021/09/15 01:58:38;;;;;;;16.17;13.88;;;;;;;;;;5030379;28;20268;-75
2021/09/15 02:01:03;;;;;;;20.17;13.68;;;;;;;;;;5026537;28;20635;-74
2021/09/15 02:03:29;;;;;;;20.23;14.63;;;;;;;;;;5033718;28;20192;-74
2021/09/15 02:05:54;;;;;;;17.73;13.55;;;;;;;;;;5027280;28;20186;-74
2021/09/15 02:08:19;;;;;;;17.48;12.48;;;;;;;;;;5033119;28;20174;-74
2021/09/15 02:10:45;;;;;;;17.58;14.20;;;;;;;;;;5024612;28;20571;-74
2021/09/15 02:13:10;;;;;;;15.20;12.90;;;;;;;;;;5030332;28;20532;-73
2021/09/15 02:15:35;;;;;;;19.88;13.77;;;;;;;;;;5022246;28;22259;-73
2021/09/15 02:18:01;;;;;;;16.98;13.40;;;;;;;;;;5032601;28;20205;-74
2021/09/15 02:20:26;;;;;;;17.65;13.38;;;;;;;;;;5027665;28;20224;-73
2021/09/15 02:22:51;;;;;;;15.20;13.10;;;;;;;;;;5024250;28;20645;-74
2021/09/15 02:25:17;;;;;;;16.83;13.48;;;;;;;;;;5028987;28;20202;-74
2021/09/15 02:27:42;;;;;;;19.20;14.10;;;;;;;;;;5026236;28;20186;-75
2021/09/15 02:30:08;;;;;;;17.65;14.00;;;;;;;;;;5030235;28;20197;-74
2021/09/15 02:32:34;;;;;;;19.30;15.00;;;;;;;;;;5024898;28;20273;-75
2021/09/15 02:34:59;;;;;;;18.95;15.57;;;;;;;;;;5030357;28;20327;-74
2021/09/15 02:37:24;;;;;;;19.83;15.18;;;;;;;;;;5023479;28;20668;-74
2021/09/15 02:39:50;;;;;;;19.02;15.02;;;;;;;;;;5029080;28;20201;-74
2021/09/15 02:42:15;;;;;;;18.52;14.60;;;;;;;;;;5023210;28;20190;-74
2021/09/15 02:44:40;;;;;;;21.45;16.75;;;;;;;;;;5030557;28;20186;-74
2021/09/15 02:47:06;;;;;;;21.60;16.25;;;;;;;;;;5022234;28;20884;-74
2021/09/15 02:49:31;;;;;;;18.92;15.02;;;;;;;;;;5029317;28;20174;-74
2021/09/15 02:51:57;;;;;;;20.77;15.55;;;;;;;;;;5032611;28;20190;-73
2021/09/15 02:54:22;;;;;;;23.35;16.95;;;;;;;;;;5021559;28;20271;-74
2021/09/15 02:56:47;;;;;;;22.08;17.27;;;;;;;;;;5033206;28;20192;-73
2021/09/15 02:59:13;;;;;;;23.08;17.67;;;;;;;;;;5021545;28;20233;-73
2021/09/15 03:01:38;;;;;;;20.35;13.57;;;;;;;;;;5030488;28;20758;-74
2021/09/15 03:04:03;;;;;;;20.90;17.17;;;;;;;;;;5021332;28;20182;-74
2021/09/15 03:06:29;;;;;;;18.80;15.50;;;;;;;;;;5031191;28;20212;-74
2021/09/15 03:08:54;;;;;;;22.20;17.00;;;;;;;;;;5021146;28;20269;-74
2021/09/15 03:11:19;;;;;;;22.92;18.70;;;;;;;;;;5033536;28;20561;-75
2021/09/15 03:13:46;;;;;;;22.80;17.17;;;;;;;;;;5024597;28;20221;-74
2021/09/15 03:16:12;;;;;;;20.55;17.45;;;;;;;;;;5029728;28;20223;-74
2021/09/15 03:18:37;;;;;;;22.85;17.48;;;;;;;;;;5024223;28;20209;-74
2021/09/15 03:21:03;;;;;;;20.80;17.02;;;;;;;;;;5026859;28;20510;-74
2021/09/15 03:23:28;;;;;;;22.30;16.27;;;;;;;;;;5030469;28;20551;-74
2021/09/15 03:25:54;;;;;;;21.20;16.10;;;;;;;;;;5024925;28;20562;-74
2021/09/15 03:28:19;;;;;;;20.38;16.92;;;;;;;;;;5029724;28;20178;-74
2021/09/15 03:30:44;;;;;;;17.92;16.00;;;;;;;;;;5020345;28;20281;-75
2021/09/15 03:33:10;;;;;;;26.70;17.33;;;;;;;;;;5030958;28;20646;-74
2021/09/15 03:35:35;;;;;;;18.83;16.63;;;;;;;;;;5021390;28;20201;-74
2021/09/15 03:38:00;;;;;;;21.13;16.48;;;;;;;;;;5028656;28;20201;-74
2021/09/15 03:40:26;;;;;;;21.25;16.00;;;;;;;;;;5020000;28;20202;-74
2021/09/15 03:42:51;;;;;;;19.35;14.80;;;;;;;;;;5029613;28;20544;-74
2021/09/15 03:45:16;;;;;;;22.20;16.15;;;;;;;;;;5020066;28;20197;-75
2021/09/15 03:47:42;;;;;;;20.55;17.05;;;;;;;;;;5028453;28;20177;-74
2021/09/15 03:50:08;;;;;;;21.10;18.05;;;;;;;;;;5033323;28;20190;-74
2021/09/15 03:52:33;;;;;;;22.48;17.17;;;;;;;;;;5022642;28;20638;-74
2021/09/15 03:54:59;;;;;;;21.48;16.27;;;;;;;;;;5032483;28;20190;-74
2021/09/15 03:57:24;;;;;;;20.98;17.45;;;;;;;;;;5022679;28;20631;-74
2021/09/15 03:59:49;;;;;;;19.13;16.00;;;;;;;;;;5030592;28;20659;-74
2021/09/15 04:02:14;;;;;;;24.50;17.83;;;;;;;;;;5018424;28;20201;-74
2021/09/15 04:04:40;;;;;;;24.73;19.00;;;;;;;;;;5023655;28;20181;-75
2021/09/15 04:07:05;;;;;;;20.95;17.52;;;;;;;;;;5022202;28;20198;-75
2021/09/15 04:09:30;;;;;;;23.42;18.92;;;;;;;;;;5025798;28;20278;-75
2021/09/15 04:11:56;;;;;;;32.58;21.25;;;;;;;;;;5022098;28;20320;-75
2021/09/15 04:14:24;;;;;;;24.65;20.38;;;;;;;;;;5029535;28;20225;-75
2021/09/15 04:16:50;;;;;;;26.33;21.20;;;;;;;;;;5021340;28;20645;-74
2021/09/15 04:19:15;;;;;;;27.23;20.75;;;;;;;;;;5031224;28;20201;-75
2021/09/15 04:21:41;;;;;;;26.40;20.83;;;;;;;;;;5029096;28;20198;-75
2021/09/15 04:32:00;;;;;;;23.40;18.27;;;;;;;;;;5029518;28;20303;-74
2021/09/15 04:34:25;;;;;;;24.92;19.10;;;;;;;;;;5017786;28;20288;-74
2021/09/15 04:36:51;;;;;;;25.70;19.38;;;;;;;;;;5029351;28;20648;-74
2021/09/15 04:39:16;;;;;;;19.65;17.13;;;;;;;;;;5019774;28;20573;-74
2021/09/15 04:41:41;;;;;;;22.98;18.38;;;;;;;;;;5032426;28;20194;-74
2021/09/15 04:44:07;;;;;;;24.02;17.98;;;;;;;;;;5019967;28;20192;-73
2021/09/15 04:46:32;;;;;;;21.40;18.80;;;;;;;;;;5029521;28;20178;-74
2021/09/15 04:48:57;;;;;;;19.25;17.00;;;;;;;;;;5020047;28;20694;-73
2021/09/15 04:51:23;;;;;;;19.58;16.60;;;;;;;;;;5028831;28;20197;-73
2021/09/15 04:53:48;;;;;;;24.40;17.77;;;;;;;;;;5018781;28;20201;-74
2021/09/15 04:56:13;;;;;;;22.52;17.08;;;;;;;;;;5028670;28;20217;-74
2021/09/15 04:58:39;;;;;;;17.27;15.27;;;;;;;;;;5027445;28;20552;-74
2021/09/15 05:01:05;;;;;;;21.80;17.33;;;;;;;;;;5020006;28;20181;-75
2021/09/15 05:03:30;;;;;;;25.45;18.08;;;;;;;;;;5028913;28;20198;-74
2021/09/15 05:05:55;;;;;;;19.95;17.77;;;;;;;;;;5021499;28;20536;-73
2021/09/15 05:08:21;;;;;;;23.52;18.10;;;;;;;;;;5026020;28;20681;-73
2021/09/15 05:10:46;;;;;;;25.40;18.10;;;;;;;;;;5024169;28;20185;-73
2021/09/15 05:13:11;;;;;;;20.60;17.40;;;;;;;;;;5024970;28;20196;-73
2021/09/15 05:15:37;;;;;;;22.17;17.92;;;;;;;;;;5017608;28;20351;-73
2021/09/15 05:18:02;;;;;;;22.38;16.25;;;;;;;;;;5023700;28;20355;-74
2021/09/15 05:20:28;;;;;;;20.40;16.45;;;;;;;;;;5015301;28;20743;-73
2021/09/15 05:22:54;;;;;;;24.63;17.73;;;;;;;;;;5017307;28;20228;-73
2021/09/15 05:25:21;;;;;;;24.20;16.33;;;;;;;;;;5022959;28;20201;-73
2021/09/15 05:27:47;;;;;;;24.38;17.15;;;;;;;;;;5017478;28;20687;-74
2021/09/15 05:30:13;;;;;;;19.40;16.50;;;;;;;;;;5027639;28;20218;-74
2021/09/15 05:32:39;;;;;;;19.30;17.05;;;;;;;;;;5017703;28;20186;-74
2021/09/15 05:35:07;;;;;;;23.27;18.52;;;;;;;;;;5032117;28;20250;-74
2021/09/15 05:37:32;;;;;;;23.05;18.10;;;;;;;;;;5021646;28;20185;-74
2021/09/15 05:39:59;;;;;;;23.00;17.75;;;;;;;;;;5028635;28;20197;-74
2021/09/15 05:42:24;;;;;;;20.55;18.00;;;;;;;;;;5017752;28;20190;-75
2021/09/15 05:44:50;;;;;;;24.92;18.98;;;;;;;;;;5027909;28;21647;-75
2021/09/15 05:47:15;;;;;;;25.70;19.00;;;;;;;;;;5018166;28;20266;-75
2021/09/15 05:49:40;;;;;;;27.65;19.98;;;;;;;;;;5027546;28;20224;-76
2021/09/15 05:52:06;;;;;;;24.90;19.20;;;;;;;;;;5019481;28;20206;-75
2021/09/15 05:54:31;;;;;;;24.27;19.05;;;;;;;;;;5022260;28;20273;-75
2021/09/15 05:56:56;;;;;;;24.15;20.00;;;;;;;;;;5024394;28;20182;-75
2021/09/15 05:59:22;;;;;;;27.40;20.20;;;;;;;;;;5007425;28;20260;-76
2021/09/15 06:01:47;;;;;;;26.45;21.67;;;;;;;;;;5029196;28;20232;-78
2021/09/15 06:04:12;;;;;;;26.77;21.15;;;;;;;;;;5021935;28;20240;-78
2021/09/15 06:06:38;;;;;;;33.22;22.77;;;;;;;;;;5027436;28;20202;-74
2021/09/15 06:09:03;;;;;;;33.80;23.88;;;;;;;;;;5020406;28;20186;-74
2021/09/15 06:11:29;;;;;;;34.53;23.77;;;;;;;;;;5032774;28;20204;-74
2021/09/15 06:13:57;;;;;;;34.00;25.25;;;;;;;;;;5022174;28;20198;-73
2021/09/15 06:16:23;;;;;;;32.30;24.20;;;;;;;;;;5031408;28;20598;-75
2021/09/15 06:18:48;;;;;;;35.45;24.60;;;;;;;;;;5023183;28;20217;-73
2021/09/15 06:21:13;;;;;;;39.10;27.27;;;;;;;;;;5029515;28;20653;-75
2021/09/15 06:23:39;;;;;;;32.45;23.88;;;;;;;;;;5026149;28;20177;-76
2021/09/15 06:26:04;;;;;;;35.55;25.92;;;;;;;;;;5029524;28;20284;-76
2021/09/15 06:28:31;;;;;;;31.83;25.27;;;;;;;;;;5028966;28;20192;-76
2021/09/15 06:30:58;;;;;;;32.67;25.23;;;;;;;;;;5015624;28;20866;-76
2021/09/15 06:33:24;;;;;;;34.47;26.80;;;;;;;;;;5030168;28;20553;-76
2021/09/15 06:35:49;;;;;;;35.35;27.38;;;;;;;;;;5019456;28;20197;-76
2021/09/15 06:38:15;;;;;;;35.95;28.33;;;;;;;;;;5032938;28;20209;-76
2021/09/15 06:40:41;;;;;;;34.80;27.48;;;;;;;;;;5020924;28;20217;-76
2021/09/15 06:43:07;;;;;;;35.55;26.80;;;;;;;;;;5032215;28;20206;-76
2021/09/15 06:45:33;;;;;;;35.28;26.70;;;;;;;;;;5022986;28;20551;-76
2021/09/15 06:47:58;;;;;;;38.90;26.98;;;;;;;;;;5033536;28;20241;-77
2021/09/15 06:50:23;;;;;;;35.65;27.08;;;;;;;;;;5024238;28;20316;-78
2021/09/15 06:52:49;;;;;;;37.45;27.70;;;;;;;;;;5033291;28;20223;-77
2021/09/15 06:55:14;;;;;;;33.97;28.15;;;;;;;;;;5024037;28;20596;-77
2021/09/15 06:57:40;;;;;;;41.35;29.75;;;;;;;;;;5029918;28;20688;-75
2021/09/15 07:00:07;;;;;;;38.15;28.60;;;;;;;;;;5027335;28;20197;-76
2021/09/15 07:02:33;;;;;;;46.80;30.42;;;;;;;;;;5021107;28;20197;-74
2021/09/15 07:04:58;;;;;;;44.50;32.40;;;;;;;;;;5026596;28;20694;-75
2021/09/15 07:07:24;;;;;;;47.58;31.85;;;;;;;;;;5022420;28;20194;-75
2021/09/15 07:09:49;;;;;;;50.72;33.72;;;;;;;;;;5029347;28;20243;-75
2021/09/15 07:12:14;;;;;;;48.70;33.22;;;;;;;;;;5023056;28;20212;-76
2021/09/15 07:14:40;;;;;;;46.58;32.90;;;;;;;;;;5025892;28;20281;-75
2021/09/15 07:17:06;;;;;;;43.20;32.45;;;;;;;;;;5020974;28;20221;-74
2021/09/15 07:19:31;;;;;;;49.15;34.55;;;;;;;;;;5026280;28;20673;-75
2021/09/15 07:21:56;;;;;;;46.20;32.38;;;;;;;;;;5021181;28;20244;-76
2021/09/15 07:24:22;;;;;;;47.10;34.53;;;;;;;;;;5027474;28;20179;-75
2021/09/15 07:26:47;;;;;;;49.75;34.25;;;;;;;;;;5031290;28;20243;-74
2021/09/15 07:29:12;;;;;;;55.20;35.42;;;;;;;;;;5019104;28;20192;-75
2021/09/15 07:31:38;;;;;;;59.28;35.60;;;;;;;;;;5029305;28;20193;-75
2021/09/15 07:34:05;;;;;;;51.88;36.03;;;;;;;;;;5017874;28;20212;-76
2021/09/15 07:36:31;;;;;;;52.83;35.50;;;;;;;;;;5029287;28;20206;-76
2021/09/15 07:38:57;;;;;;;51.45;33.55;;;;;;;;;;5018565;28;20293;-74
2021/09/15 07:41:22;;;;;;;67.88;37.45;;;;;;;;;;5028701;28;20682;-75
2021/09/15 07:43:47;;;;;;;71.28;37.80;;;;;;;;;;5019070;28;20204;-78
2021/09/15 07:46:13;;;;;;;55.92;36.25;;;;;;;;;;5023777;28;20189;-77
2021/09/15 07:48:38;;;;;;;72.20;38.53;;;;;;;;;;5017691;28;20182;-77
2021/09/15 07:51:04;;;;;;;73.95;36.38;;;;;;;;;;5027793;28;20193;-77
2021/09/15 07:53:29;;;;;;;52.80;35.35;;;;;;;;;;5019534;28;20280;-74
2021/09/15 07:55:54;;;;;;;62.08;36.78;;;;;;;;;;5029984;28;20213;-75
2021/09/15 07:58:20;;;;;;;54.05;35.13;;;;;;;;;;5027077;28;20240;-75
2021/09/15 08:00:45;;;;;;;46.00;32.30;;;;;;;;;;5022277;28;20203;-75
2021/09/15 08:03:12;;;;;;;49.50;33.13;;;;;;;;;;5030892;28;20193;-77
2021/09/15 08:05:37;;;;;;;51.55;33.63;;;;;;;;;;5024639;28;20182;-77
2021/09/15 08:08:03;;;;;;;54.95;34.30;;;;;;;;;;5030269;28;20229;-78
2021/09/15 08:10:29;;;;;;;45.78;32.67;;;;;;;;;;5024409;28;20194;-76
2021/09/15 08:12:54;;;;;;;52.28;33.88;;;;;;;;;;5028163;28;21970;-76
2021/09/15 08:15:19;;;;;;;55.60;33.10;;;;;;;;;;5020781;28;20194;-76
2021/09/15 08:17:46;;;;;;;46.88;31.27;;;;;;;;;;5029451;28;20201;-75
2021/09/15 08:20:11;;;;;;;42.85;27.00;;;;;;;;;;5021241;28;20186;-75
2021/09/15 08:22:37;;;;;;;38.70;26.25;;;;;;;;;;5027771;28;20666;-74
2021/09/15 08:25:02;;;;;;;41.70;24.75;;;;;;;;;;5028206;28;20196;-74
2021/09/15 08:27:28;;;;;;;34.00;23.50;;;;;;;;;;5014964;28;20193;-74
2021/09/15 08:29:53;;;;;;;30.75;20.95;;;;;;;;;;5025482;28;20186;-75
2021/09/15 08:32:18;;;;;;;28.00;19.05;;;;;;;;;;5018241;28;20198;-74
2021/09/15 08:34:44;;;;;;;28.30;16.98;;;;;;;;;;5027726;28;20182;-74
2021/09/15 08:37:10;;;;;;;28.73;18.10;;;;;;;;;;5020790;28;20280;-75
2021/09/15 08:39:36;;;;;;;29.90;19.42;;;;;;;;;;5033654;28;20209;-75
2021/09/15 08:42:01;;;;;;;28.00;18.30;;;;;;;;;;5016048;28;20200;-75
2021/09/15 08:44:27;;;;;;;23.92;17.08;;;;;;;;;;5024147;28;20188;-75
2021/09/15 08:46:57;;;;;;;35.55;19.83;;;;;;;;;;5015871;28;21345;-75
2021/09/15 08:49:24;;;;;;;32.47;21.35;;;;;;;;;;5025412;28;20185;-75
2021/09/15 08:51:49;;;;;;;30.95;20.77;;;;;;;;;;5020737;28;21649;-74
2021/09/15 08:54:15;;;;;;;31.42;21.58;;;;;;;;;;5029787;28;20190;-75
2021/09/15 08:56:41;;;;;;;29.02;21.00;;;;;;;;;;5026970;28;20190;-75
2021/09/15 08:59:07;;;;;;;31.90;19.83;;;;;;;;;;5020248;28;20234;-75
2021/09/15 09:01:32;;;;;;;38.25;22.55;;;;;;;;;;5028387;28;20185;-76
2021/09/15 09:03:58;;;;;;;36.45;23.45;;;;;;;;;;5019917;28;20195;-75
2021/09/15 09:06:26;;;;;;;32.10;22.98;;;;;;;;;;5028129;28;20190;-75
2021/09/15 09:09:00;;;;;;;32.85;23.27;;;;;;;;;;5019617;28;20189;-74
2021/09/15 09:11:27;;;;;;;42.35;23.50;;;;;;;;;;5027785;28;20173;-74
2021/09/15 09:13:58;;;;;;;30.10;21.67;;;;;;;;;;5018367;28;20190;-74
2021/09/15 09:16:43;;;;;;;29.90;22.73;;;;;;;;;;5025882;28;20205;-75
2021/09/15 09:19:12;;;;;;;39.47;23.60;;;;;;;;;;5009963;28;20210;-75
2021/09/15 09:21:39;;;;;;;31.08;21.58;;;;;;;;;;5024911;28;21164;-75
2021/09/15 09:24:07;;;;;;;33.33;22.13;;;;;;;;;;5020339;28;20202;-75
2021/09/15 09:26:53;;;;;;;30.80;21.17;;;;;;;;;;5027516;28;20272;-74
2021/09/15 09:29:24;;;;;;;25.50;20.48;;;;;;;;;;5017475;28;20186;-75
2021/09/15 09:31:56;;;;;;;28.75;20.35;;;;;;;;;;5029123;28;20174;-76
2021/09/15 09:34:24;;;;;;;30.08;21.83;;;;;;;;;;5015912;28;20224;-76
2021/09/15 09:37:16;;;;;;;27.20;21.38;;;;;;;;;;5024379;28;20178;-75
2021/09/15 09:39:46;;;;;;;29.95;21.23;;;;;;;;;;5017879;28;20702;-77
2021/09/15 09:42:23;;;;;;;29.70;23.05;;;;;;;;;;5032829;28;20197;-76
2021/09/15 09:45:16;;;;;;;31.83;21.48;;;;;;;;;;5023822;28;20193;-75
2021/09/15 09:47:43;;;;;;;36.92;24.85;;;;;;;;;;5029490;28;20238;-76
2021/09/15 09:50:19;;;;;;;31.80;23.90;;;;;;;;;;5024269;28;20557;-75
2021/09/15 09:53:02;;;;;;;34.85;23.77;;;;;;;;;;5032450;28;20196;-76
2021/09/15 09:55:38;;;;;;;34.78;24.90;;;;;;;;;;5023320;28;20190;-74
2021/09/15 09:58:05;;;;;;;31.33;24.92;;;;;;;;;;5032980;28;23792;-75
2021/09/15 10:00:31;;;;;;;32.92;23.95;;;;;;;;;;5023060;28;20601;-75
2021/09/15 10:02:58;;;;;;;36.90;24.67;;;;;;;;;;5032165;28;20198;-75
2021/09/15 10:05:24;;;;;;;27.42;21.48;;;;;;;;;;5028351;28;20186;-75
2021/09/15 10:07:50;;;;;;;27.20;22.40;;;;;;;;;;5028116;28;20264;-75
2021/09/15 10:10:18;;;;;;;29.00;21.77;;;;;;;;;;5033365;28;20198;-75
2021/09/15 10:12:45;;;;;;;30.00;22.83;;;;;;;;;;5022611;28;20252;-74
2021/09/15 10:15:12;;;;;;;27.60;21.95;;;;;;;;;;5031471;28;20185;-74
2021/09/15 10:17:48;;;;;;;28.08;21.88;;;;;;;;;;5025635;28;20197;-74
2021/09/15 10:20:14;;;;;;;27.42;21.45;;;;;;;;;;5030826;28;20311;-74
2021/09/15 10:22:48;;;;;;;24.08;19.95;;;;;;;;;;5022972;28;20201;-73
2021/09/15 10:25:14;;;;;;;28.17;22.48;;;;;;;;;;5030953;28;20657;-74
2021/09/15 10:28:06;;;;;;;25.45;21.58;;;;;;;;;;5024057;28;20253;-73
2021/09/15 10:30:42;;;;;;;22.77;19.88;;;;;;;;;;5030338;28;20174;-74
2021/09/15 10:33:07;;;;;;;22.48;20.10;;;;;;;;;;5021784;28;20189;-74
2021/09/15 10:35:44;;;;;;;22.13;19.70;;;;;;;;;;5032571;28;20240;-72
2021/09/15 10:38:09;;;;;;;22.83;20.13;;;;;;;;;;5022177;28;20263;-73
2021/09/15 10:40:37;;;;;;;24.63;20.60;;;;;;;;;;5031680;28;20665;-72
2021/09/15 10:43:02;;;;;;;25.73;21.35;;;;;;;;;;5020878;28;20616;-72
2021/09/15 10:45:29;;;;;;;24.90;21.23;;;;;;;;;;5027905;28;20181;-72
2021/09/15 10:47:58;;;;;;;25.65;20.13;;;;;;;;;;5023313;28;20272;-73
2021/09/15 10:50:27;;;;;;;21.98;19.65;;;;;;;;;;5028509;28;20662;-73
2021/09/15 10:52:52;;;;;;;21.65;18.88;;;;;;;;;;5019042;28;20209;-73
2021/09/15 10:55:20;;;;;;;19.95;17.77;;;;;;;;;;5023269;28;20622;-72
2021/09/15 10:57:47;;;;;;;21.10;17.77;;;;;;;;;;5028803;28;20578;-73
2021/09/15 11:00:15;;;;;;;20.38;17.50;;;;;;;;;;5019680;28;20198;-73
2021/09/15 11:02:41;;;;;;;20.48;17.10;;;;;;;;;;5030439;28;20205;-74
2021/09/15 11:05:25;;;;;;;20.08;17.05;;;;;;;;;;5022164;28;20197;-72
2021/09/15 11:07:50;;;;;;;19.92;17.73;;;;;;;;;;5030117;28;20178;-73
2021/09/15 11:10:31;;;;;;;22.48;18.00;;;;;;;;;;5021911;28;20212;-72
2021/09/15 11:12:56;;;;;;;18.90;16.65;;;;;;;;;;5031879;28;20732;-73
2021/09/15 11:15:25;;;;;;;21.05;16.45;;;;;;;;;;5020675;28;20202;-73
2021/09/15 11:17:51;;;;;;;17.20;14.23;;;;;;;;;;5029547;28;20192;-73
2021/09/15 11:20:23;;;;;;;16.58;14.05;;;;;;;;;;5015235;28;20194;-72
2021/09/15 11:22:49;;;;;;;16.00;12.38;;;;;;;;;;5024814;28;20204;-73
2021/09/15 11:25:19;;;;;;;16.10;12.27;;;;;;;;;;5012896;28;20187;-73
2021/09/15 11:28:06;;;;;;;13.23;11.63;;;;;;;;;;5023576;28;20715;-73
2021/09/15 11:30:32;;;;;;;13.57;10.77;;;;;;;;;;5017695;28;20193;-73
2021/09/15 11:32:57;;;;;;;15.18;11.63;;;;;;;;;;5024810;28;20630;-73
2021/09/15 11:35:23;;;;;;;12.48;10.32;;;;;;;;;;5018164;28;20197;-72
2021/09/15 11:37:48;;;;;;;12.10;10.40;;;;;;;;;;5027741;28;20662;-72
2021/09/15 11:40:14;;;;;;;11.07;9.95;;;;;;;;;;5022514;28;20204;-72
2021/09/15 11:42:39;;;;;;;11.10;8.73;;;;;;;;;;5019178;28;20568;-72
2021/09/15 11:45:16;;;;;;;10.10;9.00;;;;;;;;;;5026879;28;20238;-71
2021/09/15 11:47:49;;;;;;;11.43;9.52;;;;;;;;;;5020271;28;20208;-72
2021/09/15 11:50:17;;;;;;;14.60;10.93;;;;;;;;;;5026897;28;20204;-72
2021/09/15 11:52:45;;;;;;;15.02;11.32;;;;;;;;;;5021419;28;20198;-73
2021/09/15 11:55:12;;;;;;;12.30;11.00;;;;;;;;;;5027622;28;20733;-73
2021/09/15 11:57:48;;;;;;;15.73;11.73;;;;;;;;;;5022065;28;20241;-73
2021/09/15 12:00:15;;;;;;;13.70;11.30;;;;;;;;;;5027278;28;20255;-72
2021/09/15 12:02:43;;;;;;;13.45;11.55;;;;;;;;;;5020426;28;20677;-73
2021/09/15 12:05:09;;;;;;;13.25;11.68;;;;;;;;;;5027425;28;20209;-73
2021/09/15 12:07:35;;;;;;;14.80;12.18;;;;;;;;;;5020413;28;20286;-73
2021/09/15 12:10:02;;;;;;;15.63;11.77;;;;;;;;;;5028388;28;20214;-73
2021/09/15 12:12:28;;;;;;;15.93;12.90;;;;;;;;;;5021453;28;20304;-74
2021/09/15 12:14:58;;;;;;;16.27;14.18;;;;;;;;;;5029055;28;20200;-72
2021/09/15 12:17:23;;;;;;;16.58;13.77;;;;;;;;;;5029138;28;20240;-75
2021/09/15 12:19:51;;;;;;;21.95;14.75;;;;;;;;;;5020150;28;20720;-73
2021/09/15 12:22:21;;;;;;;19.08;14.95;;;;;;;;;;5028014;28;20268;-74
2021/09/15 12:25:09;;;;;;;19.98;15.65;;;;;;;;;;5015884;28;20197;-74
2021/09/15 12:27:36;;;;;;;21.27;16.35;;;;;;;;;;5027959;28;20212;-73
2021/09/15 12:30:13;;;;;;;19.48;17.27;;;;;;;;;;5017890;28;20190;-73
2021/09/15 12:32:40;;;;;;;22.17;18.27;;;;;;;;;;5027331;28;20688;-74
2021/09/15 12:35:35;;;;;;;23.58;17.20;;;;;;;;;;5010406;28;20194;-73
2021/09/15 12:38:07;;;;;;;21.88;18.73;;;;;;;;;;5027938;28;20193;-75
2021/09/15 12:40:34;;;;;;;22.90;19.05;;;;;;;;;;5021102;28;20193;-75
2021/09/15 12:43:05;;;;;;;20.65;17.70;;;;;;;;;;5027885;28;20652;-74
2021/09/15 12:45:32;;;;;;;21.48;17.85;;;;;;;;;;5023389;28;20640;-74
2021/09/15 12:47:58;;;;;;;22.92;18.55;;;;;;;;;;5030172;28;20200;-75
2021/09/15 12:50:32;;;;;;;23.17;20.73;;;;;;;;;;5020198;28;20190;-75
2021/09/15 12:53:09;;;;;;;26.42;21.70;;;;;;;;;;5026845;28;20221;-75
2021/09/15 12:55:48;;;;;;;28.80;23.13;;;;;;;;;;5022835;28;20228;-75
2021/09/15 12:58:27;;;;;;;34.25;26.70;;;;;;;;;;5024804;28;20225;-74
2021/09/15 13:00:53;;;;;;;41.03;30.92;;;;;;;;;;5021818;28;20225;-79
2021/09/15 13:03:18;;;;;;;52.85;37.55;;;;;;;;;;5025554;28;20203;-79
2021/09/15 13:05:49;;;;;;;56.20;39.45;;;;;;;;;;5024513;28;20201;-80
2021/09/15 13:08:23;;;;;;;61.35;44.30;;;;;;;;;;5029189;28;20593;-78
2021/09/15 13:10:53;;;;;;;63.42;43.38;;;;;;;;;;5025268;28;20339;-75
2021/09/15 13:13:21;;;;;;;64.18;44.05;;;;;;;;;;5027679;28;20188;-75
2021/09/15 13:15:47;;;;;;;62.88;43.65;;;;;;;;;;5026104;28;20196;-75
2021/09/15 13:18:13;;;;;;;66.00;44.85;;;;;;;;;;5034769;28;20197;-75
2021/09/15 13:20:38;;;;;;;61.38;42.28;;;;;;;;;;5032938;28;20704;-77
2021/09/15 13:23:03;;;;;;;55.28;39.58;;;;;;;;;;5027549;28;20308;-73
2021/09/15 13:25:29;;;;;;;54.70;38.55;;;;;;;;;;5032683;28;20193;-74
2021/09/15 13:27:54;;;;;;;49.80;36.47;;;;;;;;;;5026412;28;20193;-75
2021/09/15 13:30:19;;;;;;;42.78;32.10;;;;;;;;;;5036142;28;20565;-74
2021/09/15 13:32:45;;;;;;;39.35;28.17;;;;;;;;;;5028515;28;20235;-75
2021/09/15 13:35:11;;;;;;;36.17;25.15;;;;;;;;;;5031623;28;21315;-73
2021/09/15 13:37:36;;;;;;;33.10;23.90;;;;;;;;;;5023101;28;20211;-73
2021/09/15 13:40:04;;;;;;;27.55;22.13;;;;;;;;;;5034241;28;20201;-74
2021/09/15 13:42:30;;;;;;;27.75;21.65;;;;;;;;;;5022446;28;20196;-74
2021/09/15 13:44:55;;;;;;;26.92;19.50;;;;;;;;;;5029166;28;21574;-75
2021/09/15 13:47:21;;;;;;;24.25;19.38;;;;;;;;;;5022804;28;20609;-74
2021/09/15 13:49:46;;;;;;;25.90;19.35;;;;;;;;;;5029712;28;20190;-74
2021/09/15 13:52:13;;;;;;;22.10;18.20;;;;;;;;;;5031020;28;20189;-74
2021/09/15 13:54:43;;;;;;;20.80;16.88;;;;;;;;;;5021547;28;20193;-74
2021/09/15 13:57:09;;;;;;;22.15;17.48;;;;;;;;;;5030361;28;20737;-76
2021/09/15 13:59:35;;;;;;;19.65;16.90;;;;;;;;;;5020667;28;20225;-75
2021/09/15 14:02:01;;;;;;;21.70;17.20;;;;;;;;;;5032859;28;20200;-76
2021/09/15 14:04:26;;;;;;;19.35;16.27;;;;;;;;;;5017238;28;20194;-75
2021/09/15 14:06:52;;;;;;;21.45;15.95;;;;;;;;;;5031051;28;20267;-76
2021/09/15 14:09:18;;;;;;;18.65;16.23;;;;;;;;;;5022640;28;20197;-76
2021/09/15 14:11:43;;;;;;;19.05;16.98;;;;;;;;;;5033617;28;20534;-75
2021/09/15 14:14:08;;;;;;;20.15;16.83;;;;;;;;;;5022253;28;20197;-75
2021/09/15 14:16:35;;;;;;;19.88;16.45;;;;;;;;;;5030469;28;20532;-75
2021/09/15 14:19:01;;;;;;;20.63;16.60;;;;;;;;;;5023261;28;20213;-74
2021/09/15 14:21:26;;;;;;;22.38;16.45;;;;;;;;;;5019942;28;20676;-76
2021/09/15 14:23:52;;;;;;;22.02;17.33;;;;;;;;;;5029687;28;20194;-75